Time;durP1;ratioP1;P1;durP2;ratioP2;P2;SDS_P1;SDS_P2;PMS_P1;PMS_P2;Temp;Humidity;BMP_temperature;BMP_pressure;BME280_temperature;BME280_humidity;BME280_pressure;Samples;Min_cycle;Max_cycle;Signal;HPM_P1;HPM_P2
2021/07/17 00:02:22;;;;;;;;;;;16.70;99.90;;;;;;5103223;28;19908;-74
2021/07/17 00:04:47;;;;;;;;;;;16.70;99.90;;;;;;5091098;28;19908;-74
2021/07/17 00:07:13;;;;;;;;;;;16.60;99.90;;;;;;5089541;28;20299;-74
2021/07/17 00:09:38;;;;;;;;;;;16.70;99.90;;;;;;5091304;28;19915;-74
2021/07/17 00:12:04;;;;;;;;;;;16.70;99.90;;;;;;5091185;28;19908;-74
2021/07/17 00:14:30;;;;;;;;;;;16.70;99.90;;;;;;5091099;28;19908;-74
2021/07/17 00:16:55;;;;;;;;;;;16.70;99.90;;;;;;5090642;28;19914;-74
2021/07/17 00:19:21;;;;;;;;;;;16.70;99.90;;;;;;5091261;28;19962;-74
2021/07/17 00:21:47;;;;;;;;;;;16.70;99.90;;;;;;5091100;28;19915;-74
2021/07/17 00:24:12;;;;;;;;;;;16.70;99.90;;;;;;5089747;28;19918;-74
2021/07/17 00:26:38;;;;;;;;;;;16.80;99.90;;;;;;5090575;28;20339;-74
2021/07/17 00:29:03;;;;;;;;;;;16.70;99.90;;;;;;5089434;28;19951;-74
2021/07/17 00:31:29;;;;;;;;;;;16.80;99.90;;;;;;5090862;28;19912;-72
2021/07/17 00:33:54;;;;;;;;;;;16.80;99.90;;;;;;5088994;28;19909;-74
2021/07/17 00:36:20;;;;;;;;;;;16.70;99.90;;;;;;5090155;28;19914;-74
2021/07/17 00:38:45;;;;;;;;;;;16.70;99.90;;;;;;5090830;28;19909;-72
2021/07/17 00:41:11;;;;;;;;;;;16.60;99.90;;;;;;5090895;28;19909;-74
2021/07/17 00:43:36;;;;;;;;;;;16.70;99.90;;;;;;5090717;28;19908;-74
2021/07/17 00:46:02;;;;;;;;;;;16.60;99.90;;;;;;5090415;28;19924;-74
2021/07/17 00:48:28;;;;;;;;;;;16.60;99.90;;;;;;5091268;28;19934;-74
2021/07/17 00:50:53;;;;;;;;;;;16.60;99.90;;;;;;5094880;28;19908;-75
2021/07/17 00:53:19;;;;;;;;;;;16.60;99.90;;;;;;5094564;28;19997;-74
2021/07/17 00:55:47;;;;;;;;;;;16.60;99.90;;;;;;5093435;28;19908;-74
2021/07/17 00:58:13;;;;;;;;;;;16.60;99.90;;;;;;5093866;28;19978;-74
2021/07/17 01:00:38;;;;;;;;;;;16.60;99.90;;;;;;5094491;28;20006;-72
2021/07/17 01:03:06;;;;;;;;;;;16.60;99.90;;;;;;5093380;28;19908;-74
2021/07/17 01:05:31;;;;;;;;;;;16.60;99.90;;;;;;5093940;28;19923;-74
2021/07/17 01:07:57;;;;;;;;;;;16.60;99.90;;;;;;5092623;28;19916;-74
2021/07/17 01:10:23;;;;;;;;;;;16.60;99.90;;;;;;5094208;28;19908;-74
2021/07/17 01:12:49;;;;;;;;;;;16.50;99.90;;;;;;5094121;28;20276;-71
2021/07/17 01:15:15;;;;;;;;;;;16.50;99.90;;;;;;5094021;28;20284;-73
2021/07/17 01:17:40;;;;;;;;;;;16.60;99.90;;;;;;5093896;28;19909;-72
2021/07/17 01:20:07;;;;;;;;;;;16.60;99.90;;;;;;5092822;28;19908;-74
2021/07/17 01:22:33;;;;;;;;;;;16.60;99.90;;;;;;5094029;28;19908;-74
2021/07/17 01:24:58;;;;;;;;;;;16.60;99.90;;;;;;5093861;28;20368;-74
2021/07/17 01:27:24;;;;;;;;;;;16.60;99.90;;;;;;5093356;28;20382;-74
2021/07/17 01:29:50;;;;;;;;;;;16.60;99.90;;;;;;5093792;28;19908;-74
2021/07/17 01:32:19;;;;;;;;;;;16.60;99.90;;;;;;5092643;28;19939;-74
2021/07/17 01:34:45;;;;;;;;;;;16.60;99.90;;;;;;5083784;28;19987;-74
2021/07/17 01:37:10;;;;;;;;;;;16.60;99.90;;;;;;5093185;28;19944;-74
2021/07/17 01:39:36;;;;;;;;;;;16.60;99.90;;;;;;5093500;28;19908;-73
2021/07/17 01:42:01;;;;;;;;;;;16.60;99.90;;;;;;5093627;28;19962;-72
2021/07/17 01:44:27;;;;;;;;;;;16.60;99.90;;;;;;5093595;28;19908;-74
2021/07/17 01:46:53;;;;;;;;;;;16.60;99.90;;;;;;5091738;28;19916;-74
2021/07/17 01:49:19;;;;;;;;;;;16.60;99.90;;;;;;5092190;28;20418;-74
2021/07/17 01:51:44;;;;;;;;;;;16.60;99.90;;;;;;5093371;28;19908;-74
2021/07/17 01:54:10;;;;;;;;;;;16.60;99.90;;;;;;5093396;28;19908;-73
2021/07/17 01:56:35;;;;;;;;;;;16.60;99.90;;;;;;5092605;28;19931;-74
2021/07/17 01:59:01;;;;;;;;;;;16.60;99.90;;;;;;5091906;28;20086;-74
2021/07/17 02:01:26;;;;;;;;;;;16.70;99.90;;;;;;5092944;28;19915;-74
2021/07/17 02:03:52;;;;;;;;;;;16.70;99.90;;;;;;5092249;28;19957;-73
2021/07/17 02:06:25;;;;;;;;;;;16.70;99.90;;;;;;5085653;28;19918;-74
2021/07/17 02:08:51;;;;;;;;;;;16.70;99.90;;;;;;5092896;28;20338;-74
2021/07/17 02:11:16;;;;;;;;;;;16.70;99.90;;;;;;5092782;28;19912;-74
2021/07/17 02:13:42;;;;;;;;;;;16.70;99.90;;;;;;5093014;28;19938;-72
2021/07/17 02:16:07;;;;;;;;;;;16.80;99.90;;;;;;5092667;28;19947;-74
2021/07/17 02:18:33;;;;;;;;;;;16.80;99.90;;;;;;5092975;28;19912;-74
2021/07/17 02:20:59;;;;;;;;;;;16.80;99.90;;;;;;5092768;28;19961;-74
2021/07/17 02:23:25;;;;;;;;;;;16.70;99.90;;;;;;5092662;28;19908;-74
2021/07/17 02:25:52;;;;;;;;;;;16.70;99.90;;;;;;5091147;28;19916;-74
2021/07/17 02:28:18;;;;;;;;;;;16.70;99.90;;;;;;5092346;28;20341;-74
2021/07/17 02:30:43;;;;;;;;;;;16.70;99.90;;;;;;5092722;28;19940;-74
2021/07/17 02:33:10;;;;;;;;;;;16.70;99.90;;;;;;5092333;28;19908;-74
2021/07/17 02:35:35;;;;;;;;;;;16.60;99.90;;;;;;5084995;28;20331;-74
2021/07/17 02:38:01;;;;;;;;;;;16.60;99.90;;;;;;5090337;28;19908;-72
2021/07/17 02:40:26;;;;;;;;;;;16.60;99.90;;;;;;5091143;28;19912;-74
2021/07/17 02:42:52;;;;;;;;;;;16.50;99.90;;;;;;5092268;28;19912;-74
2021/07/17 02:45:17;;;;;;;;;;;16.50;99.90;;;;;;5092185;28;19923;-74
2021/07/17 02:47:43;;;;;;;;;;;16.50;99.90;;;;;;5091688;28;19998;-71
2021/07/17 02:50:08;;;;;;;;;;;16.50;99.90;;;;;;5092269;28;19908;-74
2021/07/17 02:52:34;;;;;;;;;;;16.50;99.90;;;;;;5091936;28;19977;-75
2021/07/17 02:54:59;;;;;;;;;;;16.50;99.90;;;;;;5092191;28;19915;-74
2021/07/17 02:57:25;;;;;;;;;;;16.50;99.90;;;;;;5091607;28;20365;-74
2021/07/17 02:59:50;;;;;;;;;;;16.60;99.90;;;;;;5092174;28;19915;-74
2021/07/17 03:02:16;;;;;;;;;;;16.50;99.90;;;;;;5091656;28;19955;-74
2021/07/17 03:04:41;;;;;;;;;;;16.50;99.90;;;;;;5084467;28;19962;-72
2021/07/17 03:07:06;;;;;;;;;;;16.50;99.90;;;;;;5091076;28;19918;-74
2021/07/17 03:09:32;;;;;;;;;;;16.50;99.90;;;;;;5091837;28;19919;-74
2021/07/17 03:11:58;;;;;;;;;;;16.50;99.90;;;;;;5091187;28;19962;-74
2021/07/17 03:14:23;;;;;;;;;;;16.50;99.90;;;;;;5091895;28;20361;-72
2021/07/17 03:16:49;;;;;;;;;;;16.50;99.90;;;;;;5091469;28;19915;-74
2021/07/17 03:19:14;;;;;;;;;;;16.50;99.90;;;;;;5091779;28;19915;-75
2021/07/17 03:21:40;;;;;;;;;;;16.50;99.90;;;;;;5091820;28;20006;-74
2021/07/17 03:24:05;;;;;;;;;;;16.50;99.90;;;;;;5091317;28;19912;-72
2021/07/17 03:26:31;;;;;;;;;;;16.50;99.90;;;;;;5091140;28;19912;-74
2021/07/17 03:28:56;;;;;;;;;;;16.40;99.90;;;;;;5091533;28;19950;-74
2021/07/17 03:31:26;;;;;;;;;;;16.50;99.90;;;;;;5091541;28;19912;-74
2021/07/17 03:33:52;;;;;;;;;;;16.40;99.90;;;;;;5089920;28;19908;-74
2021/07/17 03:36:17;;;;;;;;;;;16.40;99.90;;;;;;5084314;28;19935;-74
2021/07/17 03:38:42;;;;;;;;;;;16.40;99.90;;;;;;5091188;28;19916;-74
2021/07/17 03:41:08;;;;;;;;;;;16.40;99.90;;;;;;5090169;28;19916;-72
2021/07/17 03:43:33;;;;;;;;;;;16.40;99.90;;;;;;5089989;28;19985;-74
2021/07/17 03:45:59;;;;;;;;;;;16.30;99.90;;;;;;5091027;28;19923;-73
2021/07/17 03:48:24;;;;;;;;;;;16.30;99.90;;;;;;5090795;28;19912;-74
2021/07/17 03:50:50;;;;;;;;;;;16.30;99.90;;;;;;5091351;28;19908;-74
2021/07/17 03:53:15;;;;;;;;;;;16.40;99.90;;;;;;5091022;28;20002;-75
2021/07/17 03:55:41;;;;;;;;;;;16.40;99.90;;;;;;5091255;28;19908;-74
2021/07/17 03:58:06;;;;;;;;;;;16.40;99.90;;;;;;5090789;28;19908;-72
2021/07/17 04:00:32;;;;;;;;;;;16.40;99.90;;;;;;5091306;28;19982;-75
2021/07/17 04:02:57;;;;;;;;;;;16.40;99.90;;;;;;5090995;28;19915;-74
2021/07/17 04:05:23;;;;;;;;;;;16.40;99.90;;;;;;5082286;28;19908;-73
2021/07/17 04:07:48;;;;;;;;;;;16.30;99.90;;;;;;5090421;28;19914;-75
2021/07/17 04:10:15;;;;;;;;;;;16.40;99.90;;;;;;5090938;28;20269;-74
2021/07/17 04:12:40;;;;;;;;;;;16.30;99.90;;;;;;5089984;28;19908;-74
2021/07/17 04:15:06;;;;;;;;;;;16.30;99.90;;;;;;5090975;28;19912;-74
2021/07/17 04:17:32;;;;;;;;;;;16.30;99.90;;;;;;5090514;28;19916;-74
2021/07/17 04:19:57;;;;;;;;;;;16.30;99.90;;;;;;5089878;28;19908;-74
2021/07/17 04:22:23;;;;;;;;;;;16.40;99.90;;;;;;5089950;28;19908;-72
2021/07/17 04:24:48;;;;;;;;;;;16.40;99.90;;;;;;5095012;28;19915;-74
2021/07/17 04:27:14;;;;;;;;;;;16.40;99.90;;;;;;5094487;28;20361;-74
2021/07/17 04:29:40;;;;;;;;;;;16.40;99.90;;;;;;5094742;28;19908;-74
2021/07/17 04:32:05;;;;;;;;;;;16.40;99.90;;;;;;5094892;28;19999;-74
2021/07/17 04:34:31;;;;;;;;;;;16.30;99.90;;;;;;5087298;28;19916;-74
2021/07/17 04:36:57;;;;;;;;;;;16.30;99.90;;;;;;5092886;28;19909;-74
2021/07/17 04:39:23;;;;;;;;;;;16.30;99.90;;;;;;5093454;28;19964;-74
2021/07/17 04:41:48;;;;;;;;;;;16.30;99.90;;;;;;5094761;28;20373;-74
2021/07/17 04:44:14;;;;;;;;;;;16.40;99.90;;;;;;5094465;28;19908;-73
2021/07/17 04:46:39;;;;;;;;;;;16.40;99.90;;;;;;5094099;28;19965;-75
2021/07/17 04:49:05;;;;;;;;;;;16.40;99.90;;;;;;5094549;28;20253;-75
2021/07/17 04:51:30;;;;;;;;;;;16.40;99.90;;;;;;5094263;28;19908;-74
2021/07/17 04:53:56;;;;;;;;;;;16.40;99.90;;;;;;5094463;28;19915;-72
2021/07/17 04:56:21;;;;;;;;;;;16.40;99.90;;;;;;5093838;28;19908;-74
2021/07/17 04:58:47;;;;;;;;;;;16.40;99.90;;;;;;5093169;28;20282;-75
2021/07/17 05:01:12;;;;;;;;;;;16.40;99.90;;;;;;5092859;28;19912;-73
2021/07/17 05:03:38;;;;;;;;;;;16.40;99.90;;;;;;5094425;28;19931;-74
2021/07/17 05:06:03;;;;;;;;;;;16.50;99.90;;;;;;5086050;28;20015;-75
2021/07/17 05:08:29;;;;;;;;;;;16.50;99.90;;;;;;5094021;28;19915;-74
2021/07/17 05:10:54;;;;;;;;;;;16.50;99.90;;;;;;5092779;28;19912;-73
2021/07/17 05:13:20;;;;;;;;;;;16.60;99.90;;;;;;5092888;28;20365;-75
2021/07/17 05:15:45;;;;;;;;;;;16.70;99.90;;;;;;5093806;28;19908;-75
2021/07/17 05:18:11;;;;;;;;;;;16.70;99.90;;;;;;5093714;28;20312;-75
2021/07/17 05:20:38;;;;;;;;;;;16.70;99.90;;;;;;5093671;28;19908;-75
2021/07/17 05:23:03;;;;;;;;;;;16.70;99.90;;;;;;5093989;28;20371;-74
2021/07/17 05:25:29;;;;;;;;;;;16.70;99.90;;;;;;5092487;28;19915;-73
2021/07/17 05:27:54;;;;;;;;;;;16.60;99.90;;;;;;5093467;28;20376;-75
2021/07/17 05:30:20;;;;;;;;;;;16.60;99.90;;;;;;5093778;28;20464;-75
2021/07/17 05:32:45;;;;;;;;;;;16.60;99.90;;;;;;5093636;28;19908;-74
2021/07/17 05:35:11;;;;;;;;;;;16.60;99.90;;;;;;5089905;28;19908;-73
2021/07/17 05:37:37;;;;;;;;;;;16.50;99.90;;;;;;5113150;28;20265;-75
2021/07/17 05:40:02;;;;;;;;;;;16.50;99.90;;;;;;5114026;28;20006;-74
2021/07/17 05:42:29;;;;;;;;;;;16.50;99.90;;;;;;5113928;28;19963;-75
2021/07/17 05:44:54;;;;;;;;;;;16.50;99.90;;;;;;5113906;28;19923;-74
2021/07/17 05:47:20;;;;;;;;;;;16.50;99.90;;;;;;5113230;28;19912;-74
2021/07/17 05:49:45;;;;;;;;;;;16.50;99.90;;;;;;5113713;28;20360;-72
2021/07/17 05:52:11;;;;;;;;;;;16.50;99.90;;;;;;5113735;28;19927;-74
2021/07/17 05:54:36;;;;;;;;;;;16.50;99.90;;;;;;5113821;28;19911;-75
2021/07/17 05:57:02;;;;;;;;;;;16.50;99.90;;;;;;5113189;28;20394;-75
2021/07/17 05:59:27;;;;;;;;;;;16.60;99.90;;;;;;5113594;28;19919;-73
2021/07/17 06:01:53;;;;;;;;;;;16.60;99.90;;;;;;5113576;28;19908;-75
2021/07/17 06:04:18;;;;;;;;;;;16.60;99.90;;;;;;5104743;28;19913;-74
2021/07/17 06:06:44;;;;;;;;;;;16.60;99.90;;;;;;5089274;28;20315;-74
2021/07/17 06:09:09;;;;;;;;;;;16.70;99.90;;;;;;5093136;28;19908;-75
2021/07/17 06:11:35;;;;;;;;;;;16.70;99.90;;;;;;5092950;28;20421;-75
2021/07/17 06:14:00;;;;;;;;;;;16.80;99.90;;;;;;5093077;28;19999;-74
2021/07/17 06:16:26;;;;;;;;;;;16.80;99.90;;;;;;5092479;28;20371;-73
2021/07/17 06:18:51;;;;;;;;;;;16.70;99.90;;;;;;5092787;28;19998;-75
2021/07/17 06:21:17;;;;;;;;;;;16.80;99.90;;;;;;5093129;28;20261;-74
2021/07/17 06:23:42;;;;;;;;;;;16.80;99.90;;;;;;5092727;28;19933;-75
2021/07/17 06:26:08;;;;;;;;;;;16.70;99.90;;;;;;5092596;28;20342;-73
2021/07/17 06:28:34;;;;;;;;;;;16.80;99.90;;;;;;5092541;28;19908;-75
2021/07/17 06:30:59;;;;;;;;;;;16.70;99.90;;;;;;5092809;28;20280;-74
2021/07/17 06:33:25;;;;;;;;;;;16.80;99.90;;;;;;5092541;28;19915;-74
2021/07/17 06:35:50;;;;;;;;;;;16.80;99.90;;;;;;5084953;28;19908;-72
2021/07/17 06:38:16;;;;;;;;;;;16.80;99.90;;;;;;5090719;28;20301;-75
2021/07/17 06:40:41;;;;;;;;;;;16.80;99.90;;;;;;5092799;28;19977;-72
2021/07/17 06:43:07;;;;;;;;;;;16.80;99.90;;;;;;5092943;28;19956;-73
2021/07/17 06:45:32;;;;;;;;;;;16.80;99.90;;;;;;5092278;28;19920;-73
2021/07/17 06:47:57;;;;;;;;;;;16.80;99.90;;;;;;5091344;28;20291;-73
2021/07/17 06:50:23;;;;;;;;;;;16.80;99.90;;;;;;5092488;28;19955;-73
2021/07/17 06:52:49;;;;;;;;;;;16.80;99.90;;;;;;5092232;28;19908;-73
2021/07/17 06:55:15;;;;;;;;;;;16.80;99.90;;;;;;5092337;28;20003;-73
2021/07/17 06:57:41;;;;;;;;;;;16.90;99.90;;;;;;5092015;28;19908;-72
2021/07/17 07:00:08;;;;;;;;;;;16.80;99.90;;;;;;5092309;28;19915;-73
2021/07/17 07:02:33;;;;;;;;;;;16.80;99.90;;;;;;5092133;28;19908;-73
2021/07/17 07:04:59;;;;;;;;;;;16.90;99.90;;;;;;5084484;28;21280;-73
2021/07/17 07:07:24;;;;;;;;;;;17.00;99.90;;;;;;5091471;28;19919;-72
2021/07/17 07:09:50;;;;;;;;;;;17.00;99.90;;;;;;5092159;28;19908;-72
2021/07/17 07:12:16;;;;;;;;;;;17.00;99.90;;;;;;5091931;28;20290;-73
2021/07/17 07:14:42;;;;;;;;;;;17.00;99.90;;;;;;5092198;28;19914;-73
2021/07/17 07:17:07;;;;;;;;;;;17.10;99.90;;;;;;5091510;28;19908;-73
2021/07/17 07:19:33;;;;;;;;;;;17.10;99.90;;;;;;5091667;28;20478;-73
2021/07/17 07:21:58;;;;;;;;;;;17.20;99.90;;;;;;5091878;28;19954;-73
2021/07/17 07:24:24;;;;;;;;;;;17.20;99.90;;;;;;5091844;28;19918;-72
2021/07/17 07:26:49;;;;;;;;;;;17.20;99.90;;;;;;5091415;28;20327;-73
2021/07/17 07:29:15;;;;;;;;;;;17.30;99.90;;;;;;5091913;28;20194;-73
2021/07/17 07:31:40;;;;;;;;;;;17.30;99.90;;;;;;5091918;28;19908;-73
2021/07/17 07:34:05;;;;;;;;;;;17.30;99.90;;;;;;5089086;28;19919;-73
2021/07/17 07:36:31;;;;;;;;;;;17.30;99.90;;;;;;5086611;28;20007;-73
2021/07/17 07:38:57;;;;;;;;;;;17.20;99.90;;;;;;5091726;28;19949;-73
2021/07/17 07:41:22;;;;;;;;;;;17.30;99.90;;;;;;5091736;28;19913;-73
2021/07/17 07:43:48;;;;;;;;;;;17.40;99.90;;;;;;5091752;28;19916;-73
2021/07/17 07:46:13;;;;;;;;;;;17.40;99.90;;;;;;5091166;28;19923;-73
2021/07/17 07:48:41;;;;;;;;;;;17.50;99.90;;;;;;5091557;28;19908;-73
2021/07/17 07:51:07;;;;;;;;;;;17.50;99.90;;;;;;5091949;28;20268;-72
2021/07/17 07:53:33;;;;;;;;;;;17.50;99.90;;;;;;5091647;28;20007;-72
2021/07/17 07:56:00;;;;;;;;;;;17.50;99.90;;;;;;5091334;28;19908;-73
2021/07/17 07:58:25;;;;;;;;;;;17.50;99.90;;;;;;5091448;28;19908;-73
2021/07/17 08:00:50;;;;;;;;;;;17.50;99.90;;;;;;5091487;28;19908;-72
2021/07/17 08:03:16;;;;;;;;;;;17.50;99.90;;;;;;5091461;28;19912;-73
2021/07/17 08:05:41;;;;;;;;;;;17.50;99.90;;;;;;5083729;28;19915;-73
2021/07/17 08:08:07;;;;;;;;;;;17.50;99.90;;;;;;5091129;28;19966;-72
2021/07/17 08:10:32;;;;;;;;;;;17.50;99.90;;;;;;5091258;28;20403;-73
2021/07/17 08:12:58;;;;;;;;;;;17.60;99.90;;;;;;5091520;28;19908;-73
2021/07/17 08:15:23;;;;;;;;;;;17.60;99.90;;;;;;5091331;28;19908;-73
2021/07/17 08:17:49;;;;;;;;;;;17.70;99.90;;;;;;5090822;28;20001;-73
2021/07/17 08:20:16;;;;;;;;;;;17.70;99.90;;;;;;5091312;28;20038;-73
2021/07/17 08:22:42;;;;;;;;;;;17.70;99.90;;;;;;5091690;28;19908;-72
2021/07/17 08:25:08;;;;;;;;;;;17.60;99.90;;;;;;5091452;28;19916;-73
2021/07/17 08:27:34;;;;;;;;;;;17.50;99.90;;;;;;5090660;28;19942;-73
2021/07/17 08:29:59;;;;;;;;;;;17.50;99.90;;;;;;5091306;28;19908;-73
2021/07/17 08:32:25;;;;;;;;;;;17.60;99.90;;;;;;5091099;28;19908;-72
2021/07/17 08:34:52;;;;;;;;;;;17.70;99.90;;;;;;5083912;28;20293;-73
2021/07/17 08:37:21;;;;;;;;;;;17.70;99.90;;;;;;5090827;28;19908;-73
2021/07/17 08:39:46;;;;;;;;;;;17.80;99.90;;;;;;5090936;28;19994;-73
2021/07/17 08:42:14;;;;;;;;;;;17.80;99.90;;;;;;5091090;28;19948;-73
2021/07/17 08:44:40;;;;;;;;;;;17.90;99.90;;;;;;5091002;28;20368;-73
2021/07/17 08:47:06;;;;;;;;;;;17.90;99.90;;;;;;5089203;28;19923;-73
2021/07/17 08:49:33;;;;;;;;;;;17.80;99.90;;;;;;5091148;28;19953;-73
2021/07/17 08:52:00;;;;;;;;;;;17.80;99.90;;;;;;5091053;28;19908;-73
2021/07/17 08:54:26;;;;;;;;;;;17.90;99.90;;;;;;5088351;28;19912;-73
2021/07/17 08:56:52;;;;;;;;;;;18.00;99.90;;;;;;5090468;28;19931;-73
2021/07/17 08:59:18;;;;;;;;;;;18.10;99.90;;;;;;5087228;28;20283;-73
2021/07/17 09:01:43;;;;;;;;;;;18.20;99.90;;;;;;5087497;28;19912;-73
2021/07/17 09:04:09;;;;;;;;;;;18.20;99.90;;;;;;5091068;28;19908;-73
2021/07/17 09:06:37;;;;;;;;;;;18.10;99.90;;;;;;5090543;28;19996;-73
2021/07/17 09:09:04;;;;;;;;;;;18.10;99.90;;;;;;5090914;28;20327;-73
2021/07/17 09:11:33;;;;;;;;;;;18.00;99.90;;;;;;5094566;28;19999;-73
2021/07/17 09:13:59;;;;;;;;;;;18.00;99.90;;;;;;5094321;28;19908;-73
2021/07/17 09:16:28;;;;;;;;;;;18.00;99.90;;;;;;5092996;28;19908;-73
2021/07/17 09:18:54;;;;;;;;;;;18.00;99.90;;;;;;5092524;28;20280;-73
2021/07/17 09:21:19;;;;;;;;;;;18.00;99.90;;;;;;5094409;28;19914;-73
2021/07/17 09:23:49;;;;;;;;;;;17.90;99.90;;;;;;5092818;28;19953;-73
2021/07/17 09:26:16;;;;;;;;;;;17.90;99.90;;;;;;5093862;28;19916;-73
2021/07/17 09:28:42;;;;;;;;;;;18.00;99.90;;;;;;5093921;28;20420;-73
2021/07/17 09:31:08;;;;;;;;;;;18.10;99.90;;;;;;5094236;28;19999;-73
2021/07/17 09:33:34;;;;;;;;;;;18.20;99.90;;;;;;5092751;28;20018;-73
2021/07/17 09:36:00;;;;;;;;;;;18.30;99.90;;;;;;5090387;28;20015;-73
2021/07/17 09:38:27;;;;;;;;;;;18.40;99.90;;;;;;5088038;28;20332;-73
2021/07/17 09:40:54;;;;;;;;;;;18.60;99.90;;;;;;5093422;28;19908;-73
2021/07/17 09:43:25;;;;;;;;;;;18.70;99.90;;;;;;5093717;28;20390;-73
2021/07/17 09:45:52;;;;;;;;;;;18.80;99.90;;;;;;5093501;28;19923;-72
2021/07/17 09:48:20;;;;;;;;;;;19.00;99.90;;;;;;5093289;28;19909;-73
2021/07/17 09:50:46;;;;;;;;;;;18.90;99.90;;;;;;5092626;28;19931;-73
2021/07/17 09:53:11;;;;;;;;;;;18.90;99.90;;;;;;5093546;28;20360;-73
2021/07/17 09:55:37;;;;;;;;;;;18.90;99.90;;;;;;5093508;28;19915;-73
2021/07/17 09:58:09;;;;;;;;;;;19.00;99.90;;;;;;5093150;28;19904;-73
2021/07/17 10:00:35;;;;;;;;;;;19.00;99.90;;;;;;5093617;28;20379;-73
2021/07/17 10:03:12;;;;;;;;;;;19.00;99.90;;;;;;5088837;28;19908;-73
2021/07/17 10:05:38;;;;;;;;;;;19.00;99.90;;;;;;5093329;28;19909;-73
2021/07/17 10:08:09;;;;;;;;;;;19.00;99.90;;;;;;5092659;28;19915;-73
2021/07/17 10:10:35;;;;;;;;;;;19.00;99.90;;;;;;5093419;28;19908;-73
2021/07/17 10:13:00;;;;;;;;;;;18.90;99.90;;;;;;5093224;28;19912;-73
2021/07/17 10:15:30;;;;;;;;;;;18.90;99.90;;;;;;5093185;28;20368;-73
2021/07/17 10:18:03;;;;;;;;;;;18.70;99.90;;;;;;5092855;28;20372;-73
2021/07/17 10:20:28;;;;;;;;;;;18.70;99.90;;;;;;5093100;28;19912;-73
2021/07/17 10:22:54;;;;;;;;;;;18.80;99.90;;;;;;5092932;28;19908;-72
2021/07/17 10:25:20;;;;;;;;;;;18.70;99.90;;;;;;5092789;28;20376;-73
2021/07/17 10:27:45;;;;;;;;;;;18.80;99.90;;;;;;5092566;28;20369;-73
2021/07/17 10:30:11;;;;;;;;;;;18.90;99.90;;;;;;5093012;28;19908;-73
2021/07/17 10:32:36;;;;;;;;;;;18.90;99.90;;;;;;5089319;28;19908;-73
2021/07/17 10:35:02;;;;;;;;;;;19.00;99.90;;;;;;5092480;28;19912;-73
2021/07/17 10:37:32;;;;;;;;;;;19.00;99.90;;;;;;5086330;28;20269;-73
2021/07/17 10:40:04;;;;;;;;;;;19.10;99.90;;;;;;5092504;28;19993;-73
2021/07/17 10:42:30;;;;;;;;;;;19.30;99.90;;;;;;5092812;28;19908;-73
2021/07/17 10:44:55;;;;;;;;;;;19.30;99.90;;;;;;5092497;28;19916;-73
2021/07/17 10:47:21;;;;;;;;;;;19.60;99.90;;;;;;5092147;28;19920;-73
2021/07/17 10:49:47;;;;;;;;;;;19.80;99.90;;;;;;5090986;28;19909;-73
2021/07/17 10:52:13;;;;;;;;;;;20.10;99.90;;;;;;5092529;28;19977;-73
2021/07/17 10:54:39;;;;;;;;;;;20.30;99.90;;;;;;5092422;28;19914;-73
2021/07/17 10:57:05;;;;;;;;;;;20.50;99.90;;;;;;5092138;28;19908;-73
2021/07/17 10:59:30;;;;;;;;;;;20.70;99.90;;;;;;5092270;28;20452;-73
2021/07/17 11:01:56;;;;;;;;;;;20.80;99.90;;;;;;5092457;28;20010;-73
2021/07/17 11:04:30;;;;;;;;;;;20.70;99.90;;;;;;5092119;28;19908;-73
2021/07/17 11:07:16;;;;;;;;;;;20.70;99.90;;;;;;5086620;28;20012;-73
2021/07/17 11:09:51;;;;;;;;;;;20.60;99.90;;;;;;5091759;28;19916;-73
2021/07/17 11:12:20;;;;;;;;;;;20.50;99.90;;;;;;5092157;28;19962;-72
2021/07/17 11:14:45;;;;;;;;;;;20.40;99.90;;;;;;5090593;28;19908;-72
2021/07/17 11:17:11;;;;;;;;;;;20.10;99.90;;;;;;5091709;28;19961;-73
2021/07/17 11:19:36;;;;;;;;;;;19.90;99.90;;;;;;5090746;28;19908;-73
2021/07/17 11:22:10;;;;;;;;;;;19.70;99.90;;;;;;5091849;28;19916;-73
2021/07/17 11:24:35;;;;;;;;;;;19.70;99.90;;;;;;5091967;28;19908;-72
2021/07/17 11:27:11;;;;;;;;;;;19.80;99.90;;;;;;5085772;28;20367;-73
2021/07/17 11:29:38;;;;;;;;;;;19.90;99.90;;;;;;5091762;28;19912;-73
2021/07/17 11:32:07;;;;;;;;;;;20.20;99.90;;;;;;5090230;28;20300;-73
2021/07/17 11:34:35;;;;;;;;;;;20.40;99.90;;;;;;5091914;28;20289;-73
2021/07/17 11:37:03;;;;;;;;;;;20.70;99.90;;;;;;5088118;28;19908;-72
2021/07/17 11:39:30;;;;;;;;;;;20.60;99.90;;;;;;5090319;28;19908;-73
2021/07/17 11:41:56;;;;;;;;;;;20.50;99.90;;;;;;5091433;28;20372;-73
2021/07/17 11:44:25;;;;;;;;;;;20.50;99.90;;;;;;5091530;28;19909;-72
2021/07/17 11:46:58;;;;;;;;;;;20.30;99.90;;;;;;5091277;28;19912;-73
2021/07/17 11:49:30;;;;;;;;;;;20.10;99.90;;;;;;5091645;28;19912;-72
2021/07/17 11:51:57;;;;;;;;;;;20.20;99.90;;;;;;5091705;28;19908;-72
2021/07/17 11:54:24;;;;;;;;;;;20.10;99.90;;;;;;5091455;28;19951;-73
2021/07/17 11:57:07;;;;;;;;;;;20.10;99.90;;;;;;5091035;28;19908;-73
2021/07/17 11:59:34;;;;;;;;;;;20.00;99.90;;;;;;5090801;28;19912;-73
2021/07/17 12:02:01;;;;;;;;;;;20.10;99.90;;;;;;5093157;28;19909;-73
2021/07/17 12:04:35;;;;;;;;;;;20.10;99.90;;;;;;5093330;28;19912;-73
2021/07/17 12:07:08;;;;;;;;;;;20.10;99.90;;;;;;5091336;28;20365;-73
2021/07/17 12:09:41;;;;;;;;;;;20.30;99.90;;;;;;5093338;28;19908;-73
2021/07/17 12:12:17;;;;;;;;;;;20.10;99.90;;;;;;5092686;28;19912;-73
2021/07/17 12:14:44;;;;;;;;;;;20.00;99.90;;;;;;5092651;28;20333;-73
2021/07/17 12:17:09;;;;;;;;;;;19.90;99.90;;;;;;5092026;28;20305;-72
2021/07/17 12:19:35;;;;;;;;;;;19.90;99.90;;;;;;5091403;28;19912;-73
2021/07/17 12:22:00;;;;;;;;;;;19.90;99.90;;;;;;5091184;28;19908;-73
2021/07/17 12:24:26;;;;;;;;;;;20.00;99.90;;;;;;5091375;28;19915;-73
2021/07/17 12:27:00;;;;;;;;;;;20.20;99.90;;;;;;5090622;28;19957;-73
2021/07/17 12:29:25;;;;;;;;;;;20.30;99.90;;;;;;5091178;28;19908;-73
2021/07/17 12:32:01;;;;;;;;;;;20.60;99.90;;;;;;5091508;28;20391;-72
2021/07/17 12:34:26;;;;;;;;;;;21.00;99.90;;;;;;5089864;28;19982;-72
2021/07/17 12:36:52;;;;;;;;;;;21.20;99.90;;;;;;5086109;28;20398;-73
2021/07/17 12:39:21;;;;;;;;;;;21.30;99.90;;;;;;5090960;28;19912;-73
2021/07/17 12:41:49;;;;;;;;;;;21.50;99.90;;;;;;5091009;28;20010;-72
2021/07/17 12:44:15;;;;;;;;;;;21.30;99.90;;;;;;5091172;28;19915;-73
2021/07/17 12:46:43;;;;;;;;;;;21.20;99.90;;;;;;5093131;28;19916;-72
2021/07/17 12:49:13;;;;;;;;;;;21.00;99.90;;;;;;5095124;28;19991;-73
2021/07/17 12:51:43;;;;;;;;;;;20.90;99.90;;;;;;5095042;28;19908;-72
2021/07/17 12:54:08;;;;;;;;;;;20.80;99.90;;;;;;5094691;28;19908;-72
2021/07/17 12:56:52;;;;;;;;;;;20.70;99.90;;;;;;5094334;28;19915;-72
2021/07/17 12:59:24;;;;;;;;;;;20.60;99.90;;;;;;5094580;28;20005;-72
2021/07/17 13:01:50;;;;;;;;;;;20.60;99.90;;;;;;5094705;28;19915;-72
2021/07/17 13:04:17;;;;;;;;;;;20.70;99.90;;;;;;5094454;28;19912;-72
2021/07/17 13:06:54;;;;;;;;;;;20.80;99.90;;;;;;5090494;28;19916;-72
2021/07/17 13:09:25;;;;;;;;;;;20.70;99.90;;;;;;5093983;28;19909;-73
2021/07/17 13:11:50;;;;;;;;;;;20.70;99.90;;;;;;5094402;28;19908;-73
2021/07/17 13:14:21;;;;;;;;;;;20.80;99.90;;;;;;5094316;28;19908;-73
2021/07/17 13:16:47;;;;;;;;;;;21.00;99.90;;;;;;5093941;28;20385;-72
2021/07/17 13:19:14;;;;;;;;;;;21.10;99.90;;;;;;5094094;28;19974;-73
2021/07/17 13:21:41;;;;;;;;;;;21.20;99.90;;;;;;5094385;28;20438;-73
2021/07/17 13:24:07;;;;;;;;;;;21.30;99.90;;;;;;5093983;28;19912;-73
2021/07/17 13:26:35;;;;;;;;;;;21.40;99.90;;;;;;5093699;28;20434;-73
2021/07/17 13:29:12;;;;;;;;;;;21.30;99.90;;;;;;5094032;28;20380;-73
2021/07/17 13:31:46;;;;;;;;;;;21.30;99.90;;;;;;5094122;28;19998;-73
2021/07/17 13:34:12;;;;;;;;;;;21.30;99.90;;;;;;5094135;28;20276;-73
2021/07/17 13:36:56;;;;;;;;;;;21.30;99.90;;;;;;5085799;28;19916;-73
2021/07/17 13:39:23;;;;;;;;;;;21.30;99.90;;;;;;5087608;28;19908;-72
2021/07/17 13:41:49;;;;;;;;;;;21.30;99.90;;;;;;5093923;28;19909;-73
2021/07/17 13:44:15;;;;;;;;;;;21.10;99.90;;;;;;5093624;28;20286;-72
2021/07/17 13:46:41;;;;;;;;;;;21.00;99.90;;;;;;5093289;28;19959;-72
2021/07/17 13:49:15;;;;;;;;;;;20.90;99.90;;;;;;5093369;28;19951;-72
2021/07/17 13:51:41;;;;;;;;;;;20.90;99.90;;;;;;5093712;28;19908;-71
2021/07/17 13:54:06;;;;;;;;;;;20.90;99.90;;;;;;5093479;28;19961;-73
2021/07/17 13:56:32;;;;;;;;;;;20.80;99.90;;;;;;5092860;28;19908;-73
2021/07/17 13:59:00;;;;;;;;;;;20.90;99.90;;;;;;5093411;28;20331;-72
2021/07/17 14:01:26;;;;;;;;;;;20.90;99.90;;;;;;5093246;28;19934;-73
2021/07/17 14:03:51;;;;;;;;;;;21.00;99.90;;;;;;5093229;28;19912;-72
2021/07/17 14:06:17;;;;;;;;;;;21.10;99.90;;;;;;5089046;28;20442;-72
2021/07/17 14:08:43;;;;;;;;;;;21.20;99.90;;;;;;5090270;28;19962;-73
2021/07/17 14:11:10;;;;;;;;;;;21.20;99.90;;;;;;5093160;28;19939;-72
2021/07/17 14:13:36;;;;;;;;;;;21.50;99.90;;;;;;5093298;28;19954;-72